createdAt,value
2022-11-10T00:00:10.891Z,38.63
2022-11-10T00:02:15.294Z,38.88
2022-11-10T00:04:19.980Z,38.98
2022-11-10T00:06:24.524Z,38.94
2022-11-10T00:08:29.319Z,39.04
2022-11-10T00:10:33.770Z,38.82
2022-11-10T00:12:38.175Z,39.25
2022-11-10T00:14:42.559Z,39.07
2022-11-10T00:16:46.946Z,39.1
2022-11-10T00:18:51.294Z,39.17
2022-11-10T00:20:55.630Z,39.11
2022-11-10T00:23:00.038Z,39.33
2022-11-10T00:25:04.407Z,39.29
2022-11-10T00:27:09.000Z,39.49
2022-11-10T00:29:13.406Z,39.54
2022-11-10T00:31:17.799Z,39.76
2022-11-10T00:33:23.361Z,39.53
2022-11-10T00:35:27.938Z,39.42
2022-11-10T00:37:32.294Z,39.43
2022-11-10T00:39:36.753Z,39.42
2022-11-10T00:41:41.158Z,39.48
2022-11-10T00:43:45.538Z,39.69
2022-11-10T00:45:49.885Z,39.3
2022-11-10T00:47:54.253Z,39.72
2022-11-10T00:49:58.665Z,39.66
2022-11-10T00:52:03.043Z,40.02
2022-11-10T00:54:07.442Z,39.86
2022-11-10T00:56:11.829Z,40.08
2022-11-10T00:58:16.251Z,40.01
2022-11-10T01:00:20.637Z,39.56
2022-11-10T01:02:24.969Z,39.94
2022-11-10T01:04:29.342Z,39.91
2022-11-10T01:06:33.861Z,39.51
2022-11-10T01:08:38.263Z,39.8
2022-11-10T01:10:42.625Z,39.68
2022-11-10T01:12:46.978Z,39.46
2022-11-10T01:14:51.393Z,39.14
2022-11-10T01:16:55.834Z,39.75
2022-11-10T01:19:00.206Z,39.3
2022-11-10T01:21:04.594Z,39.5
2022-11-10T01:23:08.948Z,39.64
2022-11-10T01:25:13.295Z,39.49
2022-11-10T01:27:17.673Z,39.21
2022-11-10T01:29:22.038Z,39.66
2022-11-10T01:31:26.412Z,39.81
2022-11-10T01:33:30.805Z,39.73
2022-11-10T01:35:35.179Z,39.47
2022-11-10T01:37:39.531Z,39.22
2022-11-10T01:39:43.890Z,39.44
2022-11-10T01:41:48.357Z,39.41
2022-11-10T01:43:52.733Z,39.51
2022-11-10T01:45:57.119Z,39.07
2022-11-10T01:48:01.476Z,39.75
2022-11-10T01:50:05.928Z,39.17
2022-11-10T01:52:10.337Z,38.96
2022-11-10T01:54:14.740Z,39.54
2022-11-10T01:56:19.116Z,39.46
2022-11-10T01:58:23.487Z,39.73
2022-11-10T02:00:27.986Z,39.89
2022-11-10T02:02:32.489Z,39.87
2022-11-10T02:04:36.882Z,39.74
2022-11-10T02:06:41.418Z,39.83
2022-11-10T02:08:45.836Z,39.96
2022-11-10T02:10:50.223Z,39.9
2022-11-10T02:12:54.610Z,39.85
2022-11-10T02:14:58.997Z,39.79
2022-11-10T02:17:03.325Z,39.91
2022-11-10T02:19:07.690Z,39.93
2022-11-10T02:21:12.071Z,39.93
2022-11-10T02:23:16.424Z,39.88
2022-11-10T02:25:20.809Z,39.7
2022-11-10T02:27:25.167Z,39.85
2022-11-10T02:29:29.584Z,40.04
2022-11-10T02:31:34.001Z,39.88
2022-11-10T02:33:38.487Z,40.02
2022-11-10T02:35:42.875Z,40.11
2022-11-10T02:37:47.242Z,39.85
2022-11-10T02:39:51.617Z,40.11
2022-11-10T02:41:55.982Z,40.05
2022-11-10T02:44:00.376Z,39.78
2022-11-10T02:46:04.717Z,39.82
2022-11-10T02:48:09.061Z,39.94
2022-11-10T02:50:13.442Z,39.87
2022-11-10T02:52:17.790Z,40.12
2022-11-10T02:54:22.155Z,40.14
2022-11-10T02:56:26.524Z,40.2
2022-11-10T02:58:30.887Z,40.06
2022-11-10T03:00:35.311Z,39.87
2022-11-10T03:02:39.702Z,39.46
2022-11-10T03:04:44.101Z,40.04
2022-11-10T03:06:48.632Z,40.13
2022-11-10T03:08:52.982Z,39.74
2022-11-10T03:10:57.351Z,40.03
2022-11-10T03:13:01.720Z,39.96
2022-11-10T03:15:06.123Z,39.85
2022-11-10T03:17:10.473Z,40.02
2022-11-10T03:19:15.061Z,40.14
2022-11-10T03:21:19.401Z,39.78
2022-11-10T03:23:25.009Z,39.94
2022-11-10T03:25:29.505Z,40.23
2022-11-10T03:27:33.882Z,39.68
2022-11-10T03:29:38.324Z,40.03
2022-11-10T03:31:42.686Z,39.95
2022-11-10T03:33:47.086Z,40.04
2022-11-10T03:35:51.425Z,40.28
2022-11-10T03:37:55.764Z,40.02
2022-11-10T03:40:00.143Z,40.1
2022-11-10T03:42:04.523Z,40.38
2022-11-10T03:44:09.060Z,40.35
2022-11-10T03:46:13.486Z,40.06
2022-11-10T03:48:17.848Z,40.18
2022-11-10T03:50:22.220Z,40.42
2022-11-10T03:52:26.631Z,40.32
2022-11-10T03:54:30.995Z,40.36
2022-11-10T03:56:35.381Z,40.26
2022-11-10T03:58:39.722Z,40.26
2022-11-10T04:00:44.220Z,40.07
2022-11-10T04:02:48.587Z,39.79
2022-11-10T04:04:52.963Z,40.2
2022-11-10T04:06:57.614Z,40.25
2022-11-10T04:09:02.091Z,40.27
2022-11-10T04:11:06.463Z,40.31
2022-11-10T04:13:10.840Z,40.34
2022-11-10T04:15:15.185Z,40.2
2022-11-10T04:17:19.557Z,40.32
2022-11-10T04:19:24.015Z,40.12
2022-11-10T04:21:28.383Z,40.46
2022-11-10T04:23:32.748Z,39.64
2022-11-10T04:25:37.099Z,40.1
2022-11-10T04:27:41.484Z,40.22
2022-11-10T04:29:45.852Z,40.55
2022-11-10T04:31:50.238Z,40.28
2022-11-10T04:33:54.627Z,39.89
2022-11-10T04:35:58.977Z,40.25
2022-11-10T04:38:03.351Z,40.27
2022-11-10T04:40:07.701Z,40.32
2022-11-10T04:42:12.050Z,40.46
2022-11-10T04:44:16.434Z,40.31
2022-11-10T04:46:20.790Z,40.3
2022-11-10T04:48:25.141Z,40.24
2022-11-10T04:50:29.490Z,40.31
2022-11-10T04:52:33.865Z,40.34
2022-11-10T04:54:38.280Z,40.41
2022-11-10T04:56:42.700Z,40.36
2022-11-10T04:58:47.086Z,40.38
2022-11-10T05:00:51.630Z,40.37
2022-11-10T05:02:56.053Z,40.36
2022-11-10T05:05:00.418Z,40.39
2022-11-10T05:07:04.950Z,40.46
2022-11-10T05:09:09.451Z,40.24
2022-11-10T05:11:13.860Z,40.36
2022-11-10T05:13:18.228Z,40.22
2022-11-10T05:15:22.640Z,40.42
2022-11-10T05:17:27.030Z,40.41
2022-11-10T05:19:31.408Z,40.3
2022-11-10T05:21:35.806Z,40.35
2022-11-10T05:23:40.385Z,40.29
2022-11-10T05:25:44.874Z,40.23
2022-11-10T05:27:49.245Z,40.16
2022-11-10T05:29:53.638Z,40.14
2022-11-10T05:31:57.982Z,40.21
2022-11-10T05:34:02.411Z,39.96
2022-11-10T05:36:06.800Z,40.19
2022-11-10T05:38:11.186Z,39.83
2022-11-10T05:40:15.595Z,40.06
2022-11-10T05:42:19.948Z,39.91
2022-11-10T05:44:24.407Z,40.08
2022-11-10T05:46:28.764Z,39.96
2022-11-10T05:48:33.156Z,40.01
2022-11-10T05:50:37.638Z,40.22
2022-11-10T05:52:44.287Z,40.02
2022-11-10T05:54:51.992Z,39.96
2022-11-10T05:56:56.369Z,40.03
2022-11-10T05:59:00.764Z,39.96
2022-11-10T06:01:05.183Z,40.02
2022-11-10T06:03:09.759Z,40.02
2022-11-10T06:05:14.332Z,39.92
2022-11-10T06:07:18.842Z,39.94
2022-11-10T06:09:23.183Z,39.96
2022-11-10T06:11:27.577Z,40.07
2022-11-10T06:13:31.947Z,39.8
2022-11-10T06:15:36.323Z,39.59
2022-11-10T06:17:40.704Z,40.33
2022-11-10T06:19:45.058Z,40.37
2022-11-10T06:21:49.575Z,40.44
2022-11-10T06:23:53.967Z,40.39
2022-11-10T06:25:58.356Z,40.45
2022-11-10T06:28:02.747Z,40.48
2022-11-10T06:30:07.448Z,40.53
2022-11-10T06:32:11.852Z,40.68
2022-11-10T06:34:16.228Z,41.62
2022-11-10T06:36:20.639Z,41.92
2022-11-10T06:38:25.287Z,42.64
2022-11-10T06:40:29.634Z,42.92
2022-11-10T06:42:33.993Z,43.33
2022-11-10T06:44:38.371Z,43.09
2022-11-10T06:46:44.514Z,42.93
2022-11-10T06:48:48.908Z,43.03
2022-11-10T06:50:53.294Z,43.29
2022-11-10T06:52:57.693Z,43.18
2022-11-10T06:55:02.122Z,43.2
2022-11-10T06:57:06.535Z,43.67
2022-11-10T06:59:10.929Z,43.34
2022-11-10T07:01:22.387Z,43.41
2022-11-10T07:03:27.524Z,44.11
2022-11-10T07:05:31.998Z,43.78
2022-11-10T07:07:36.385Z,43.6
2022-11-10T07:09:40.773Z,43.63
2022-11-10T07:11:45.165Z,44.16
2022-11-10T07:13:49.553Z,43.93
2022-11-10T07:15:53.937Z,44.02
2022-11-10T07:17:58.317Z,44.26
2022-11-10T07:20:02.675Z,44.37
2022-11-10T07:22:12.793Z,44.4
2022-11-10T07:24:17.172Z,44.34
2022-11-10T07:26:21.610Z,44.41
2022-11-10T07:28:30.362Z,44.31
2022-11-10T07:30:34.719Z,44.31
2022-11-10T07:32:39.129Z,44.54
2022-11-10T07:34:43.513Z,44.76
2022-11-10T07:36:47.859Z,44.79
2022-11-10T07:38:52.237Z,44.88
2022-11-10T07:40:56.655Z,44.58
2022-11-10T07:43:01.069Z,44.85
2022-11-10T07:45:05.466Z,44.85
2022-11-10T07:47:09.842Z,45.21
2022-11-10T07:49:14.263Z,44.84
2022-11-10T07:51:18.644Z,44.79
2022-11-10T07:53:24.449Z,44.84
2022-11-10T07:55:28.928Z,44.68
2022-11-10T07:57:33.261Z,44.22
2022-11-10T07:59:37.646Z,44.2
2022-11-10T08:01:42.257Z,44.09
2022-11-10T08:03:46.661Z,43.98
2022-11-10T08:05:51.018Z,43.94
2022-11-10T08:07:55.841Z,43.87
2022-11-10T08:10:00.207Z,43.85
2022-11-10T08:12:04.644Z,43.87
2022-11-10T08:14:08.991Z,43.95
2022-11-10T08:16:13.371Z,43.88
2022-11-10T08:18:17.804Z,43.8
2022-11-10T08:20:22.173Z,43.83
2022-11-10T08:22:26.575Z,43.85
2022-11-10T08:24:30.980Z,43.89
2022-11-10T08:26:35.367Z,43.79
2022-11-10T08:28:39.804Z,43.8
2022-11-10T08:30:44.184Z,43.91
2022-11-10T08:32:48.544Z,43.94
2022-11-10T08:34:52.932Z,43.89
2022-11-10T08:36:57.323Z,43.91
2022-11-10T08:39:01.750Z,43.98
2022-11-10T08:41:06.106Z,44.02
2022-11-10T08:43:10.555Z,43.96
2022-11-10T08:45:14.979Z,44.01
2022-11-10T08:47:19.352Z,44
2022-11-10T08:49:23.747Z,43.8
2022-11-10T08:51:28.144Z,43.76
2022-11-10T08:53:32.487Z,44.11
2022-11-10T08:55:36.860Z,43.98
2022-11-10T08:57:41.318Z,43.82
2022-11-10T08:59:45.688Z,43.67
2022-11-10T09:01:50.046Z,43.79
2022-11-10T09:03:54.439Z,43.9
2022-11-10T09:06:00.760Z,43.89
2022-11-10T09:08:05.192Z,43.9
2022-11-10T09:10:10.367Z,43.88
2022-11-10T09:12:14.752Z,43.84
2022-11-10T09:14:19.251Z,43.65
2022-11-10T09:16:23.603Z,43.79
2022-11-10T09:18:28.036Z,43.78
2022-11-10T09:20:32.414Z,43.84
2022-11-10T09:22:36.912Z,43.74
2022-11-10T09:24:41.291Z,43.84
2022-11-10T09:26:45.685Z,43.73
2022-11-10T09:28:50.067Z,43.77
2022-11-10T09:30:54.472Z,43.53
2022-11-10T09:32:58.899Z,43.63
2022-11-10T09:35:03.261Z,43.54
2022-11-10T09:37:07.557Z,43.73
2022-11-10T09:39:11.953Z,44
2022-11-10T09:41:16.388Z,43.9
2022-11-10T09:43:22.205Z,43.86
2022-11-10T09:45:26.805Z,44.13
2022-11-10T09:47:59.484Z,43.91
2022-11-10T09:50:03.841Z,44.34
2022-11-10T09:52:08.273Z,44.13
2022-11-10T09:54:12.664Z,43.7
2022-11-10T09:56:17.135Z,43.59
2022-11-10T09:58:22.659Z,43.75
2022-11-10T10:00:27.513Z,43.86
2022-11-10T10:02:31.883Z,43.72
2022-11-10T10:04:36.250Z,43.6
2022-11-10T10:07:12.918Z,43.68
2022-11-10T10:09:17.316Z,43.82
2022-11-10T10:11:21.701Z,44.25
2022-11-10T10:13:26.108Z,44.62
2022-11-10T10:15:30.473Z,44.03
2022-11-10T10:17:42.479Z,44.34
2022-11-10T10:19:46.917Z,43.9
2022-11-10T10:21:51.289Z,44
2022-11-10T10:24:21.361Z,43.99
2022-11-10T10:26:25.951Z,43.87
2022-11-10T10:28:30.343Z,43.72
2022-11-10T10:30:34.729Z,43.69
2022-11-10T10:32:39.078Z,43.62
2022-11-10T10:34:43.495Z,43.55
2022-11-10T10:36:47.884Z,43.51
2022-11-10T10:38:52.292Z,43.5
2022-11-10T10:40:56.709Z,43.47
2022-11-10T10:43:01.090Z,43.34
2022-11-10T10:45:05.635Z,43.46
2022-11-10T10:47:10.072Z,43.31
2022-11-10T10:49:32.523Z,43.41
2022-11-10T10:51:36.915Z,43.46
2022-11-10T10:53:41.302Z,43.52
2022-11-10T10:55:45.673Z,43.66
2022-11-10T10:57:50.071Z,43.6
2022-11-10T10:59:54.435Z,43.77
2022-11-10T11:01:59.107Z,43.77
2022-11-10T11:04:03.555Z,44.25
2022-11-10T11:06:08.033Z,44
2022-11-10T11:08:12.410Z,44.12
2022-11-10T11:10:16.966Z,44.08
2022-11-10T11:12:21.428Z,43.94
2022-11-10T11:14:25.858Z,43.93
2022-11-10T11:16:30.209Z,43.49
2022-11-10T11:18:34.563Z,43.54
2022-11-10T11:20:38.976Z,43.46
2022-11-10T11:22:43.366Z,43.38
2022-11-10T11:24:47.835Z,43.52
2022-11-10T11:26:52.215Z,43.65
2022-11-10T11:28:56.550Z,43.36
2022-11-10T11:31:01.296Z,43.23
2022-11-10T11:33:05.630Z,43.2
2022-11-10T11:35:10.001Z,42.99
2022-11-10T11:37:21.101Z,42.85
2022-11-10T11:39:25.454Z,42.55
2022-11-10T11:41:29.857Z,42.59
2022-11-10T11:43:34.248Z,42.39
2022-11-10T11:45:38.608Z,42.19
2022-11-10T11:47:42.975Z,42.21
2022-11-10T11:49:47.368Z,42.17
2022-11-10T11:51:51.892Z,41.93
2022-11-10T11:53:56.278Z,41.63
2022-11-10T11:56:00.672Z,41.63
2022-11-10T11:58:05.111Z,41.62
2022-11-10T12:00:09.668Z,41.79
2022-11-10T12:02:14.263Z,41.73
2022-11-10T12:04:18.698Z,41.71
2022-11-10T12:06:23.233Z,41.88
2022-11-10T12:08:29.385Z,41.98
2022-11-10T12:10:33.846Z,42.03
2022-11-10T12:12:38.270Z,42.13
2022-11-10T12:14:42.658Z,41.96
2022-11-10T12:16:47.009Z,41.86
2022-11-10T12:18:52.007Z,41.91
2022-11-10T12:20:56.415Z,42.17
2022-11-10T12:23:00.887Z,42.33
2022-11-10T12:25:05.476Z,42.35
2022-11-10T12:27:09.899Z,42.53
2022-11-10T12:29:14.334Z,42.65
2022-11-10T12:31:18.826Z,42.75
2022-11-10T12:33:23.200Z,42.85
2022-11-10T12:35:27.663Z,42.93
2022-11-10T12:37:32.024Z,43.04
2022-11-10T12:39:36.443Z,43.11
2022-11-10T12:41:40.997Z,42.53
2022-11-10T12:43:45.355Z,42.54
2022-11-10T12:45:49.795Z,42.43
2022-11-10T12:47:54.198Z,42.32
2022-11-10T12:49:58.533Z,42.5
2022-11-10T12:52:03.079Z,42.06
2022-11-10T12:54:10.057Z,41.97
2022-11-10T12:56:16.721Z,42
2022-11-10T12:58:22.656Z,42.13
2022-11-10T13:00:30.857Z,42.37
2022-11-10T13:02:35.376Z,41.99
2022-11-10T13:04:39.749Z,42.15
2022-11-10T13:06:44.300Z,42.1
2022-11-10T13:08:48.727Z,42.23
2022-11-10T13:10:53.193Z,42.25
2022-11-10T13:12:57.612Z,42.32
2022-11-10T13:15:02.169Z,42.35
2022-11-10T13:17:06.589Z,42.34
2022-11-10T13:19:10.978Z,42.34
2022-11-10T13:21:15.358Z,42.63
2022-11-10T13:23:19.742Z,42.76
2022-11-10T13:25:24.138Z,42.89
2022-11-10T13:27:28.497Z,43.13
2022-11-10T13:29:32.866Z,42.92
2022-11-10T13:31:37.538Z,42.95
2022-11-10T13:33:41.995Z,42.86
2022-11-10T13:35:48.973Z,43.08
2022-11-10T13:37:55.978Z,42.89
2022-11-10T13:40:00.433Z,42.9
2022-11-10T13:42:04.866Z,42.58
2022-11-10T13:44:09.275Z,42.02
2022-11-10T13:46:13.726Z,42.05
2022-11-10T13:48:18.267Z,42.24
2022-11-10T13:50:22.886Z,42.36
2022-11-10T13:52:27.281Z,42.29
2022-11-10T13:54:31.726Z,42.4
2022-11-10T13:56:36.098Z,42.5
2022-11-10T13:58:40.444Z,42.44
2022-11-10T14:00:44.862Z,42.38
2022-11-10T14:02:49.610Z,42.32
2022-11-10T14:04:54.068Z,42.29
2022-11-10T14:06:58.645Z,42.2
2022-11-10T14:09:03.107Z,42.18
2022-11-10T14:11:07.464Z,42.09
2022-11-10T14:13:11.834Z,42.08
2022-11-10T14:15:16.257Z,42.14
2022-11-10T14:17:20.614Z,42.21
2022-11-10T14:19:24.899Z,42.27
2022-11-10T14:21:29.303Z,42.43
2022-11-10T14:23:33.663Z,42.25
2022-11-10T14:25:38.147Z,42.14
2022-11-10T14:27:42.464Z,42.32
2022-11-10T14:29:46.778Z,42.12
2022-11-10T14:31:51.143Z,42.36
2022-11-10T14:33:55.510Z,42.49
2022-11-10T14:35:59.855Z,42.4
2022-11-10T14:38:04.194Z,42.55
2022-11-10T14:40:08.629Z,42.99
2022-11-10T14:42:13.024Z,43.25
2022-11-10T14:44:17.396Z,43.59
2022-11-10T14:46:21.826Z,44
2022-11-10T14:48:27.152Z,44.18
2022-11-10T14:50:31.459Z,44.11
2022-11-10T14:52:35.850Z,44.81
2022-11-10T14:54:40.260Z,45.19
2022-11-10T14:56:44.626Z,44.96
2022-11-10T14:58:48.998Z,44.91
2022-11-10T15:00:53.384Z,43.13
2022-11-10T15:02:58.127Z,42.25
2022-11-10T15:05:02.551Z,41.53
2022-11-10T15:07:07.340Z,40.77
2022-11-10T15:09:11.857Z,40.63
2022-11-10T15:11:16.513Z,40.33
2022-11-10T15:13:21.049Z,40.48
2022-11-10T15:15:25.408Z,40.15
2022-11-10T15:17:29.780Z,40.13
2022-11-10T15:19:34.145Z,39.75
2022-11-10T15:21:38.569Z,39.44
2022-11-10T15:23:42.964Z,39.46
2022-11-10T15:25:54.814Z,39.26
2022-11-10T15:27:59.205Z,39.09
2022-11-10T15:30:03.679Z,39.38
2022-11-10T15:32:08.088Z,40.13
2022-11-10T15:34:12.467Z,40.22
2022-11-10T15:36:16.863Z,40
2022-11-10T15:38:24.099Z,40.04
2022-11-10T15:40:28.672Z,40.06
2022-11-10T15:42:33.062Z,40.06
2022-11-10T15:44:37.579Z,40.16
2022-11-10T15:46:41.954Z,40.33
2022-11-10T15:48:46.325Z,40.05
2022-11-10T15:50:50.651Z,39.58
2022-11-10T15:52:55.058Z,39.51
2022-11-10T15:54:59.454Z,39.61
2022-11-10T15:57:03.882Z,39.65
2022-11-10T15:59:08.281Z,39.72
2022-11-10T16:01:12.852Z,39.95
2022-11-10T16:03:17.344Z,39.46
2022-11-10T16:05:21.740Z,39.44
2022-11-10T16:07:26.143Z,39.29
2022-11-10T16:09:30.528Z,39.18
2022-11-10T16:11:34.870Z,39.1
2022-11-10T16:13:39.246Z,38.94
2022-11-10T16:15:43.683Z,38.89
2022-11-10T16:17:48.093Z,38.89
2022-11-10T16:19:52.469Z,39.11
2022-11-10T16:21:56.850Z,39.39
2022-11-10T16:24:01.252Z,39.58
2022-11-10T16:26:05.724Z,39.56
2022-11-10T16:28:10.133Z,39.64
2022-11-10T16:30:14.596Z,39.88
2022-11-10T16:32:18.977Z,39.88
2022-11-10T16:34:23.353Z,40.26
2022-11-10T16:36:27.789Z,39.7
2022-11-10T16:38:32.177Z,39.16
2022-11-10T16:40:36.570Z,39.33
2022-11-10T16:42:40.918Z,39.23
2022-11-10T16:44:45.344Z,38.84
2022-11-10T16:46:49.754Z,38.88
2022-11-10T16:48:54.134Z,38.82
2022-11-10T16:50:58.568Z,39.14
2022-11-10T16:53:02.993Z,39.38
2022-11-10T16:55:07.416Z,39.62
2022-11-10T16:57:11.936Z,39.59
2022-11-10T16:59:16.347Z,39.08
2022-11-10T17:01:21.013Z,38.78
2022-11-10T17:03:25.478Z,38.94
2022-11-10T17:05:29.920Z,39.02
2022-11-10T17:07:34.349Z,39.1
2022-11-10T17:09:38.723Z,39.01
2022-11-10T17:11:43.134Z,38.82
2022-11-10T17:13:47.568Z,39.72
2022-11-10T17:15:51.937Z,39.86
2022-11-10T17:17:57.946Z,39.83
2022-11-10T17:20:03.250Z,39.51
2022-11-10T17:22:07.690Z,39.08
2022-11-10T17:24:12.095Z,38.13
2022-11-10T17:26:16.551Z,38.06
2022-11-10T17:28:20.966Z,38.35
2022-11-10T17:30:25.487Z,39.21
2022-11-10T17:33:06.237Z,39.63
2022-11-10T17:35:10.766Z,39.77
2022-11-10T17:37:15.162Z,40.6
2022-11-10T17:39:19.587Z,41.96
2022-11-10T17:41:23.994Z,40.83
2022-11-10T17:43:28.591Z,42.51
2022-11-10T17:45:32.963Z,42.05
2022-11-10T17:47:37.331Z,42.55
2022-11-10T17:49:41.742Z,43.86
2022-11-10T17:51:46.112Z,42.83
2022-11-10T17:53:50.634Z,42.53
2022-11-10T17:55:55.105Z,42.49
2022-11-10T17:57:59.483Z,41.86
2022-11-10T18:00:03.883Z,41.93
2022-11-10T18:02:08.303Z,40.53
2022-11-10T18:04:12.741Z,40.65
2022-11-10T18:06:17.158Z,41.53
2022-11-10T18:08:21.567Z,41.51
2022-11-10T18:10:26.088Z,41.36
2022-11-10T18:12:30.504Z,41.84
2022-11-10T18:14:34.886Z,41.45
2022-11-10T18:16:39.240Z,42.01
2022-11-10T18:18:43.701Z,41.72
2022-11-10T18:20:48.251Z,41.67
2022-11-10T18:22:52.683Z,41.43
2022-11-10T18:24:57.144Z,41.7
2022-11-10T18:27:01.523Z,41.7
2022-11-10T18:29:05.977Z,41.23
2022-11-10T18:31:10.323Z,41.54
2022-11-10T18:33:14.719Z,41.01
2022-11-10T18:35:19.125Z,41.02
2022-11-10T18:37:23.523Z,42.2
2022-11-10T18:39:27.924Z,41.96
2022-11-10T18:41:32.272Z,41.23
2022-11-10T18:43:36.778Z,40.65
2022-11-10T18:45:41.146Z,40.44
2022-11-10T18:47:45.565Z,40.13
2022-11-10T18:49:49.949Z,40.24
2022-11-10T18:51:54.361Z,39.9
2022-11-10T18:53:58.787Z,40.19
2022-11-10T18:56:03.161Z,39.64
2022-11-10T18:58:07.544Z,39.76
2022-11-10T19:00:11.875Z,39.41
2022-11-10T19:02:16.309Z,38.91
2022-11-10T19:04:20.649Z,38.85
2022-11-10T19:06:25.471Z,38.58
2022-11-10T19:08:29.908Z,39.02
2022-11-10T19:10:34.268Z,39.79
2022-11-10T19:12:38.666Z,40.8
2022-11-10T19:14:43.042Z,40.2
2022-11-10T19:16:47.411Z,39.55
2022-11-10T19:18:51.825Z,39.73
2022-11-10T19:20:56.206Z,39.84
2022-11-10T19:23:00.653Z,39.63
2022-11-10T19:25:12.292Z,39.33
2022-11-10T19:27:16.669Z,39.9
2022-11-10T19:29:21.073Z,39.87
2022-11-10T19:31:25.462Z,40.93
2022-11-10T19:33:29.813Z,40.55
2022-11-10T19:35:34.194Z,40.76
2022-11-10T19:37:38.577Z,40.75
2022-11-10T19:39:42.968Z,40.79
2022-11-10T19:41:47.340Z,41.14
2022-11-10T19:43:51.789Z,40.68
2022-11-10T19:45:56.164Z,40.62
2022-11-10T19:48:00.515Z,40.5
2022-11-10T19:50:04.887Z,41.28
2022-11-10T19:52:09.325Z,41.79
2022-11-10T19:54:13.786Z,42.34
2022-11-10T19:56:18.199Z,42.8
2022-11-10T19:58:22.623Z,42.94
2022-11-10T20:00:27.017Z,42.77
2022-11-10T20:02:31.413Z,43.17
2022-11-10T20:04:35.894Z,42.74
2022-11-10T20:06:40.536Z,42.6
2022-11-10T20:08:45.112Z,43.68
2022-11-10T20:10:49.573Z,43.84
2022-11-10T20:12:54.032Z,43.69
2022-11-10T20:14:58.485Z,44.05
2022-11-10T20:17:02.900Z,44.02
2022-11-10T20:19:07.276Z,44.13
2022-11-10T20:21:11.682Z,43.84
2022-11-10T20:23:16.116Z,43.66
2022-11-10T20:25:20.595Z,44.31
2022-11-10T20:27:25.064Z,44.24
2022-11-10T20:29:29.510Z,44.63
2022-11-10T20:31:33.951Z,44.46
2022-11-10T20:33:38.284Z,44.51
2022-11-10T20:35:42.653Z,44.48
2022-11-10T20:37:46.998Z,44.28
2022-11-10T20:39:51.398Z,44.46
2022-11-10T20:41:55.812Z,44.27
2022-11-10T20:44:00.096Z,44.42
2022-11-10T20:46:04.693Z,44.65
2022-11-10T20:48:09.016Z,44.48
2022-11-10T20:50:24.610Z,44.71
2022-11-10T20:52:29.061Z,44.8
2022-11-10T20:54:33.408Z,44.65
2022-11-10T20:56:37.796Z,44.83
2022-11-10T20:58:42.151Z,45.04
2022-11-10T21:00:46.569Z,45.07
2022-11-10T21:02:50.937Z,44.88
2022-11-10T21:04:55.300Z,45.21
2022-11-10T21:07:00.050Z,45.26
2022-11-10T21:09:04.413Z,45.42
2022-11-10T21:11:08.829Z,45.28
2022-11-10T21:13:13.226Z,45.69
2022-11-10T21:15:17.642Z,45.56
2022-11-10T21:17:22.016Z,45.63
2022-11-10T21:19:26.390Z,45.81
2022-11-10T21:21:30.794Z,45.73
2022-11-10T21:23:35.171Z,45.63
2022-11-10T21:25:39.572Z,45.79
2022-11-10T21:27:43.954Z,45.25
2022-11-10T21:29:48.446Z,45.07
2022-11-10T21:31:52.886Z,45.41
2022-11-10T21:33:57.295Z,45.81
2022-11-10T21:36:01.718Z,45.92
2022-11-10T21:38:06.132Z,46.26
2022-11-10T21:40:10.683Z,46.26
2022-11-10T21:42:15.146Z,46.36
2022-11-10T21:44:19.596Z,44.7
2022-11-10T21:46:24.092Z,44.75
2022-11-10T21:48:28.586Z,43.51
2022-11-10T21:50:33.077Z,43.4
2022-11-10T21:52:37.582Z,42.42
2022-11-10T21:54:42.115Z,41.99
2022-11-10T21:56:46.543Z,41.76
2022-11-10T21:58:51.001Z,41.68
2022-11-10T22:00:55.448Z,41.33
2022-11-10T22:03:00.470Z,41.19
2022-11-10T22:05:04.985Z,40.95
2022-11-10T22:07:09.744Z,40.51
2022-11-10T22:09:14.296Z,40.32
2022-11-10T22:11:18.737Z,40.27
2022-11-10T22:13:24.267Z,39.99
2022-11-10T22:15:28.932Z,40.3
2022-11-10T22:17:33.414Z,39.99
2022-11-10T22:19:37.826Z,40.05
2022-11-10T22:21:42.284Z,39.61
2022-11-10T22:23:46.751Z,39.57
2022-11-10T22:25:51.143Z,39.4
2022-11-10T22:27:55.571Z,39.37
2022-11-10T22:29:59.984Z,39.48
2022-11-10T22:32:04.450Z,39.39
2022-11-10T22:34:08.913Z,39.54
2022-11-10T22:36:13.554Z,39.38
2022-11-10T22:38:17.972Z,39.59
2022-11-10T22:40:22.432Z,39.25
2022-11-10T22:42:26.797Z,39.13
2022-11-10T22:44:31.192Z,39.44
2022-11-10T22:46:35.695Z,39.37
2022-11-10T22:48:40.056Z,38.94
2022-11-10T22:50:44.456Z,38.19
2022-11-10T22:52:48.842Z,38.11
2022-11-10T22:54:53.209Z,38.22
2022-11-10T22:56:57.576Z,38.17
2022-11-10T22:59:02.597Z,38.29
2022-11-10T23:01:07.292Z,38.7
2022-11-10T23:03:11.697Z,38.7
2022-11-10T23:05:16.109Z,38.39
2022-11-10T23:07:20.700Z,38.5
2022-11-10T23:09:25.153Z,38.73
2022-11-10T23:11:29.547Z,38.36
2022-11-10T23:13:33.910Z,38.3
2022-11-10T23:15:38.280Z,38.18
2022-11-10T23:17:42.743Z,38.08
2022-11-10T23:19:47.103Z,37.78
2022-11-10T23:21:51.466Z,37.66
2022-11-10T23:23:55.836Z,37.7
2022-11-10T23:26:00.230Z,37.74
2022-11-10T23:28:04.611Z,37.84
2022-11-10T23:30:09.038Z,37.78
2022-11-10T23:32:13.401Z,37.71
2022-11-10T23:34:17.821Z,37.69
2022-11-10T23:36:22.225Z,37.83
2022-11-10T23:38:26.605Z,37.37
2022-11-10T23:40:31.014Z,37.64
2022-11-10T23:42:35.394Z,37.66
2022-11-10T23:44:39.765Z,37.74
2022-11-10T23:46:44.168Z,37.83
2022-11-10T23:48:48.631Z,37.84
2022-11-10T23:50:53.012Z,37.6
2022-11-10T23:52:57.431Z,37.85
2022-11-10T23:55:01.813Z,37.77
2022-11-10T23:57:06.176Z,37.62
2022-11-10T23:59:10.576Z,37.58
